createdAt,value
2022-12-05T00:01:20.742Z,7.86
2022-12-05T00:03:26.172Z,7.86
2022-12-05T00:05:33.727Z,7.88
2022-12-05T00:07:38.604Z,7.90
2022-12-05T00:09:43.443Z,7.94
2022-12-05T00:11:48.834Z,7.96
2022-12-05T00:13:55.292Z,7.93
2022-12-05T00:16:00.054Z,7.91
2022-12-05T00:18:04.847Z,7.89
2022-12-05T00:20:11.261Z,7.86
2022-12-05T00:22:18.703Z,7.83
2022-12-05T00:24:23.509Z,7.80
2022-12-05T00:26:29.074Z,7.74
2022-12-05T00:28:34.150Z,7.75
2022-12-05T00:30:42.377Z,7.72
2022-12-05T00:32:47.547Z,7.71
2022-12-05T00:34:52.368Z,7.72
2022-12-05T00:36:57.150Z,7.70
2022-12-05T00:39:07.365Z,7.72
2022-12-05T00:41:14.468Z,7.73
2022-12-05T00:43:19.217Z,7.74
2022-12-05T00:45:24.570Z,7.74
2022-12-05T00:47:29.112Z,7.72
2022-12-05T00:49:34.142Z,7.72
2022-12-05T00:51:43.264Z,7.72
2022-12-05T00:53:51.843Z,7.74
2022-12-05T00:55:59.233Z,7.73
2022-12-05T00:58:04.074Z,7.70
2022-12-05T01:00:10.943Z,7.71
2022-12-05T01:02:16.190Z,7.71
2022-12-05T01:04:21.787Z,7.69
2022-12-05T01:06:27.776Z,7.69
2022-12-05T01:08:32.797Z,7.69
2022-12-05T01:10:37.699Z,7.73
2022-12-05T01:12:45.113Z,7.76
2022-12-05T01:14:49.913Z,7.78
2022-12-05T01:16:59.308Z,7.77
2022-12-05T01:19:08.025Z,7.75
2022-12-05T01:21:13.607Z,7.74
2022-12-05T01:23:18.752Z,7.72
2022-12-05T01:25:23.542Z,7.72
2022-12-05T01:27:28.815Z,7.69
2022-12-05T01:29:36.198Z,7.72
2022-12-05T01:31:41.271Z,7.69
2022-12-05T01:33:46.178Z,7.69
2022-12-05T01:35:51.019Z,7.71
2022-12-05T01:37:55.773Z,7.72
2022-12-05T01:40:00.558Z,7.70
2022-12-05T01:42:08.111Z,7.71
2022-12-05T01:44:42.661Z,7.70
2022-12-05T01:46:52.554Z,7.68
2022-12-05T01:49:01.871Z,7.70
2022-12-05T01:51:06.697Z,7.70
2022-12-05T01:53:11.619Z,7.71
2022-12-05T01:55:19.321Z,7.72
2022-12-05T01:57:25.820Z,7.74
2022-12-05T01:59:34.935Z,7.73
2022-12-05T02:01:40.391Z,7.68
2022-12-05T02:03:49.466Z,7.63
2022-12-05T02:05:57.006Z,7.54
2022-12-05T02:08:05.549Z,7.56
2022-12-05T02:10:11.630Z,7.52
2022-12-05T02:12:16.481Z,7.47
2022-12-05T02:14:31.778Z,7.47
2022-12-05T02:16:51.659Z,7.38
2022-12-05T02:19:11.658Z,7.42
2022-12-05T02:21:38.188Z,7.43
2022-12-05T02:24:14.742Z,7.42
2022-12-05T02:26:50.863Z,7.42
2022-12-05T02:29:27.609Z,7.29
2022-12-05T02:31:37.843Z,7.28
2022-12-05T02:33:49.153Z,7.27
2022-12-05T02:36:03.384Z,7.33
2022-12-05T02:38:18.973Z,7.32
2022-12-05T02:40:29.431Z,7.31
2022-12-05T02:42:40.903Z,7.27
2022-12-05T02:44:51.756Z,7.28
2022-12-05T02:47:01.768Z,7.22
2022-12-05T02:49:11.570Z,7.20
2022-12-05T02:51:20.618Z,7.24
2022-12-05T02:53:28.740Z,7.24
2022-12-05T02:55:35.294Z,7.18
2022-12-05T02:57:41.373Z,7.05
2022-12-05T02:59:46.223Z,7.09
2022-12-05T03:01:51.644Z,7.05
2022-12-05T03:04:00.715Z,7.06
2022-12-05T03:06:09.566Z,7.09
2022-12-05T03:08:19.569Z,7.06
2022-12-05T03:10:29.931Z,7.02
2022-12-05T03:12:38.680Z,6.93
2022-12-05T03:14:47.297Z,6.85
2022-12-05T03:16:54.404Z,6.76
2022-12-05T03:19:06.450Z,6.84
2022-12-05T03:21:18.574Z,6.81
2022-12-05T03:23:27.680Z,6.77
2022-12-05T03:25:38.885Z,6.87
2022-12-05T03:27:50.042Z,6.92
2022-12-05T03:30:02.074Z,6.90
2022-12-05T03:32:13.634Z,6.78
2022-12-05T03:34:31.656Z,6.80
2022-12-05T03:36:42.627Z,6.78
2022-12-05T03:38:52.586Z,6.67
2022-12-05T03:41:05.531Z,6.52
2022-12-05T03:43:14.943Z,6.34
2022-12-05T03:45:25.999Z,6.32
2022-12-05T03:47:38.724Z,6.41
2022-12-05T03:49:51.503Z,6.44
2022-12-05T03:52:01.398Z,6.47
2022-12-05T03:54:12.265Z,6.52
2022-12-05T03:56:21.211Z,6.52
2022-12-05T03:58:32.066Z,6.61
2022-12-05T04:00:41.456Z,6.67
2022-12-05T04:02:52.515Z,6.68
2022-12-05T04:05:04.459Z,6.74
2022-12-05T04:07:11.856Z,6.74
2022-12-05T04:09:20.938Z,6.73
2022-12-05T04:11:30.284Z,6.73
2022-12-05T04:13:39.235Z,6.79
2022-12-05T04:15:56.418Z,6.80
2022-12-05T04:18:02.961Z,6.79
2022-12-05T04:20:27.967Z,6.67
2022-12-05T04:22:33.110Z,6.58
2022-12-05T04:24:50.370Z,6.57
2022-12-05T04:27:07.162Z,6.50
2022-12-05T04:29:19.917Z,6.50
2022-12-05T04:31:28.649Z,6.45
2022-12-05T04:33:40.102Z,6.42
2022-12-05T04:35:55.022Z,6.29
2022-12-05T04:38:06.980Z,6.24
2022-12-05T04:40:17.534Z,6.19
2022-12-05T04:42:25.993Z,6.24
2022-12-05T04:44:34.707Z,6.24
2022-12-05T04:46:42.416Z,6.34
2022-12-05T04:48:51.422Z,6.35
2022-12-05T04:51:01.005Z,6.37
2022-12-05T04:53:06.406Z,6.33
2022-12-05T04:55:15.231Z,6.26
2022-12-05T04:57:24.811Z,6.27
2022-12-05T04:59:29.677Z,6.25
2022-12-05T05:01:40.599Z,6.15
2022-12-05T05:03:48.707Z,6.07
2022-12-05T05:05:59.123Z,6.00
2022-12-05T05:08:07.120Z,5.99
2022-12-05T05:10:13.718Z,6.00
2022-12-05T05:12:19.383Z,6.07
2022-12-05T05:14:24.265Z,6.09
2022-12-05T05:16:31.743Z,6.12
2022-12-05T05:18:36.598Z,6.20
2022-12-05T05:20:41.770Z,6.24
2022-12-05T05:22:52.901Z,6.18
2022-12-05T05:24:57.694Z,6.19
2022-12-05T05:27:02.515Z,6.17
2022-12-05T05:29:07.766Z,6.15
2022-12-05T05:31:12.352Z,5.95
2022-12-05T05:33:17.279Z,6.00
2022-12-05T05:35:22.514Z,6.00
2022-12-05T05:37:27.348Z,6.06
2022-12-05T05:39:34.762Z,6.04
2022-12-05T05:41:39.709Z,6.11
2022-12-05T05:43:44.839Z,6.05
2022-12-05T05:45:49.329Z,6.00
2022-12-05T05:47:54.651Z,5.88
2022-12-05T05:49:59.694Z,5.99
2022-12-05T05:52:04.477Z,6.00
2022-12-05T05:54:09.286Z,5.97
2022-12-05T05:56:21.729Z,5.99
2022-12-05T05:58:26.925Z,6.02
2022-12-05T06:00:31.785Z,5.99
2022-12-05T06:02:37.574Z,6.03
2022-12-05T06:04:42.482Z,6.06
2022-12-05T06:06:47.314Z,6.12
2022-12-05T06:08:52.764Z,6.19
2022-12-05T06:10:57.591Z,6.20
2022-12-05T06:13:05.556Z,6.17
2022-12-05T06:15:11.954Z,6.09
2022-12-05T06:17:17.011Z,6.09
2022-12-05T06:19:21.894Z,6.00
2022-12-05T06:21:27.751Z,5.99
2022-12-05T06:23:32.866Z,5.92
2022-12-05T06:25:37.686Z,5.92
2022-12-05T06:27:42.921Z,5.83
2022-12-05T06:29:52.970Z,5.80
2022-12-05T06:31:58.009Z,5.68
2022-12-05T06:34:04.607Z,5.69
2022-12-05T06:36:11.884Z,5.61
2022-12-05T06:38:16.953Z,5.55
2022-12-05T06:40:21.961Z,5.61
2022-12-05T06:42:26.744Z,5.59
2022-12-05T06:44:31.539Z,5.63
2022-12-05T06:46:38.911Z,5.62
2022-12-05T06:48:43.772Z,5.74
2022-12-05T06:50:53.928Z,5.80
2022-12-05T06:52:58.656Z,5.81
2022-12-05T06:55:03.480Z,5.78
2022-12-05T06:57:08.242Z,5.74
2022-12-05T06:59:12.986Z,5.82
2022-12-05T07:01:31.871Z,5.81
2022-12-05T07:03:39.303Z,5.84
2022-12-05T07:05:44.171Z,5.80
2022-12-05T07:07:49.389Z,5.72
2022-12-05T07:09:56.964Z,5.68
2022-12-05T07:12:01.964Z,5.72
2022-12-05T07:14:14.871Z,5.64
2022-12-05T07:16:24.175Z,5.53
2022-12-05T07:18:29.501Z,5.54
2022-12-05T07:21:10.100Z,5.57
2022-12-05T07:23:01.852Z,5.58
2022-12-05T07:25:07.512Z,5.65
2022-12-05T07:27:12.437Z,5.67
2022-12-05T07:29:17.239Z,5.70
2022-12-05T07:31:23.880Z,5.77
2022-12-05T07:33:28.691Z,5.77
2022-12-05T07:35:36.111Z,5.77
2022-12-05T07:37:40.896Z,5.78
2022-12-05T07:39:48.074Z,5.82
2022-12-05T07:41:52.901Z,5.85
2022-12-05T07:43:59.750Z,5.90
2022-12-05T07:46:06.031Z,5.86
2022-12-05T07:48:14.460Z,5.83
2022-12-05T07:50:22.946Z,5.80
2022-12-05T07:52:30.678Z,5.83
2022-12-05T07:54:36.000Z,5.79
2022-12-05T07:56:44.705Z,5.84
2022-12-05T07:58:53.102Z,5.84
2022-12-05T08:00:58.298Z,5.86
2022-12-05T08:03:05.440Z,5.90
2022-12-05T08:05:10.891Z,5.89
2022-12-05T08:07:15.941Z,5.90
2022-12-05T08:09:23.361Z,5.93
2022-12-05T08:11:30.413Z,5.98
2022-12-05T08:13:35.293Z,5.95
2022-12-05T08:15:40.079Z,5.93
2022-12-05T08:17:44.892Z,5.95
2022-12-05T08:19:49.702Z,5.98
2022-12-05T08:21:57.197Z,6.01
2022-12-05T08:24:02.022Z,6.04
2022-12-05T08:26:14.733Z,6.08
2022-12-05T08:28:19.490Z,5.99
2022-12-05T08:30:24.385Z,6.07
2022-12-05T08:32:29.652Z,6.09
2022-12-05T08:34:34.142Z,6.10
2022-12-05T08:36:39.435Z,6.07
2022-12-05T08:38:45.058Z,6.08
2022-12-05T08:40:49.984Z,6.11
2022-12-05T08:42:57.393Z,6.09
2022-12-05T08:45:02.339Z,6.09
2022-12-05T08:47:07.251Z,6.11
2022-12-05T08:49:13.576Z,6.12
2022-12-05T08:51:18.571Z,6.15
2022-12-05T08:53:23.682Z,6.20
2022-12-05T08:55:28.322Z,6.21
2022-12-05T08:57:33.111Z,6.21
2022-12-05T08:59:40.515Z,6.29
2022-12-05T09:01:45.693Z,6.29
2022-12-05T09:03:51.116Z,6.23
2022-12-05T09:05:55.911Z,6.26
2022-12-05T09:08:01.188Z,6.34
2022-12-05T09:10:05.959Z,6.29
2022-12-05T09:12:10.792Z,6.33
2022-12-05T09:14:16.315Z,6.37
2022-12-05T09:16:26.701Z,6.40
2022-12-05T09:18:31.539Z,6.42
2022-12-05T09:20:36.417Z,6.37
2022-12-05T09:22:42.960Z,6.38
2022-12-05T09:24:47.731Z,6.42
2022-12-05T09:26:53.149Z,6.40
2022-12-05T09:28:58.036Z,6.40
2022-12-05T09:31:05.094Z,6.47
2022-12-05T09:33:12.713Z,6.50
2022-12-05T09:35:17.802Z,6.42
2022-12-05T09:37:38.881Z,6.43
2022-12-05T09:39:46.830Z,6.47
2022-12-05T09:42:18.645Z,6.55
2022-12-05T09:44:29.953Z,6.55
2022-12-05T09:46:46.893Z,6.62
2022-12-05T09:48:55.416Z,6.64
2022-12-05T09:51:03.920Z,6.69
2022-12-05T09:53:16.615Z,6.70
2022-12-05T09:55:23.731Z,6.70
2022-12-05T09:57:36.969Z,6.75
2022-12-05T09:59:42.096Z,6.76
2022-12-05T10:01:56.106Z,6.78
2022-12-05T10:04:45.896Z,6.80
2022-12-05T10:07:01.616Z,6.77
2022-12-05T10:09:28.831Z,6.74
2022-12-05T10:11:40.106Z,6.70
2022-12-05T10:13:56.725Z,6.72
2022-12-05T10:16:07.755Z,6.73
2022-12-05T10:18:31.498Z,6.75
2022-12-05T10:20:46.058Z,6.78
2022-12-05T10:22:54.809Z,6.80
2022-12-05T10:25:04.521Z,6.84
2022-12-05T10:27:11.871Z,6.81
2022-12-05T10:29:26.614Z,6.82
2022-12-05T10:31:35.304Z,6.84
2022-12-05T10:33:46.028Z,6.89
2022-12-05T10:35:54.551Z,6.91
2022-12-05T10:38:01.931Z,6.91
2022-12-05T10:40:07.767Z,6.90
2022-12-05T10:42:16.702Z,6.95
2022-12-05T10:44:21.694Z,6.98
2022-12-05T10:46:26.717Z,7.06
2022-12-05T10:48:33.338Z,6.98
2022-12-05T10:50:42.488Z,7.01
2022-12-05T10:52:50.859Z,7.02
2022-12-05T10:55:00.503Z,7.04
2022-12-05T10:57:23.562Z,7.03
2022-12-05T10:59:46.507Z,7.04
2022-12-05T11:01:54.652Z,7.04
2022-12-05T11:04:01.778Z,7.08
2022-12-05T11:06:19.740Z,7.07
2022-12-05T11:08:56.070Z,6.99
2022-12-05T11:11:05.252Z,6.93
2022-12-05T11:13:18.531Z,6.97
2022-12-05T11:15:26.103Z,7.00
2022-12-05T11:17:34.990Z,7.06
2022-12-05T11:19:41.251Z,7.13
2022-12-05T11:21:46.331Z,7.16
2022-12-05T11:23:54.190Z,7.18
2022-12-05T11:26:00.549Z,7.13
2022-12-05T11:28:26.668Z,7.14
2022-12-05T11:30:32.967Z,7.10
2022-12-05T11:32:37.849Z,7.09
2022-12-05T11:34:48.376Z,7.10
2022-12-05T11:36:59.485Z,7.06
2022-12-05T11:39:07.162Z,7.08
2022-12-05T11:41:37.979Z,7.10
2022-12-05T11:44:00.111Z,7.10
2022-12-05T11:46:13.843Z,6.99
2022-12-05T11:48:38.224Z,7.01
2022-12-05T11:50:53.174Z,6.96
2022-12-05T11:53:08.510Z,6.88
2022-12-05T11:55:23.005Z,6.93
2022-12-05T11:57:46.201Z,7.00
2022-12-05T12:00:15.390Z,7.03
2022-12-05T12:02:33.845Z,7.06
2022-12-05T12:04:52.351Z,7.07
2022-12-05T12:07:09.242Z,7.17
2022-12-05T12:09:33.292Z,7.25
2022-12-05T12:11:48.400Z,7.32
2022-12-05T12:14:04.105Z,7.42
2022-12-05T12:16:18.508Z,7.47
2022-12-05T12:18:42.852Z,7.56
2022-12-05T12:21:02.393Z,7.63
2022-12-05T12:23:21.561Z,7.67
2022-12-05T12:25:36.445Z,7.76
2022-12-05T12:27:58.662Z,7.88
2022-12-05T12:30:14.882Z,7.94
2022-12-05T12:32:30.574Z,7.96
2022-12-05T12:35:10.689Z,7.87
2022-12-05T12:37:24.058Z,7.84
2022-12-05T12:39:42.054Z,7.81
2022-12-05T12:42:02.747Z,7.74
2022-12-05T12:44:36.618Z,7.68
2022-12-05T12:46:49.034Z,7.59
2022-12-05T12:49:09.749Z,7.54
2022-12-05T12:51:16.795Z,7.53
2022-12-05T12:53:57.452Z,7.48
2022-12-05T12:56:11.291Z,7.48
2022-12-05T12:58:30.895Z,7.51
2022-12-05T13:00:52.879Z,7.47
2022-12-05T13:03:03.156Z,7.47
2022-12-05T13:05:11.498Z,7.48
2022-12-05T13:07:20.464Z,7.49
2022-12-05T13:09:30.986Z,7.52
2022-12-05T13:11:40.936Z,7.55
2022-12-05T13:13:49.986Z,7.55
2022-12-05T13:16:06.395Z,7.57
2022-12-05T13:18:19.034Z,7.57
2022-12-05T13:20:27.858Z,7.49
2022-12-05T13:22:33.890Z,7.54
2022-12-05T13:24:42.677Z,7.53
2022-12-05T13:26:51.082Z,7.52
2022-12-05T13:28:58.436Z,7.49
2022-12-05T13:31:06.674Z,7.46
2022-12-05T13:33:13.084Z,7.47
2022-12-05T13:35:36.441Z,7.45
2022-12-05T13:38:02.355Z,7.41
2022-12-05T13:40:34.250Z,7.32
2022-12-05T13:42:39.387Z,7.23
2022-12-05T13:44:46.639Z,7.23
2022-12-05T13:46:55.204Z,7.23
2022-12-05T13:49:07.186Z,7.28
2022-12-05T13:51:17.086Z,7.32
2022-12-05T13:53:32.708Z,7.37
2022-12-05T13:55:38.991Z,7.33
2022-12-05T13:57:51.065Z,7.25
2022-12-05T14:00:05.964Z,7.29
2022-12-05T14:02:52.852Z,7.30
2022-12-05T14:05:00.360Z,7.32
2022-12-05T14:07:05.238Z,7.33
2022-12-05T14:09:31.550Z,7.34
2022-12-05T14:11:36.125Z,7.25
2022-12-05T14:13:45.233Z,7.28
2022-12-05T14:15:51.022Z,7.30
2022-12-05T14:18:02.492Z,7.33
2022-12-05T14:20:26.097Z,7.33
2022-12-05T14:23:05.571Z,7.29
2022-12-05T14:25:22.645Z,7.24
2022-12-05T14:27:41.340Z,7.17
2022-12-05T14:30:02.136Z,7.19
2022-12-05T14:32:17.371Z,7.23
2022-12-05T14:34:26.752Z,7.23
2022-12-05T14:36:34.192Z,7.25
2022-12-05T14:38:40.293Z,7.29
2022-12-05T14:40:47.348Z,7.29
2022-12-05T14:42:59.002Z,7.31
2022-12-05T14:45:19.871Z,7.25
2022-12-05T14:47:28.135Z,7.24
2022-12-05T14:50:02.767Z,7.20
2022-12-05T14:52:15.132Z,7.16
2022-12-05T14:54:21.515Z,7.19
2022-12-05T14:56:29.394Z,7.15
2022-12-05T14:58:40.163Z,7.13
2022-12-05T15:00:48.207Z,7.15
2022-12-05T15:02:56.214Z,7.16
2022-12-05T15:05:06.345Z,7.17
2022-12-05T15:07:18.604Z,7.07
2022-12-05T15:09:44.556Z,7.02
2022-12-05T15:11:49.479Z,6.98
2022-12-05T15:13:55.014Z,7.02
2022-12-05T15:16:05.791Z,7.08
2022-12-05T15:18:20.707Z,7.13
2022-12-05T15:20:40.406Z,7.11
2022-12-05T15:22:48.708Z,7.15
2022-12-05T15:24:53.570Z,7.12
2022-12-05T15:27:00.016Z,7.11
2022-12-05T15:29:08.790Z,7.12
2022-12-05T15:31:16.475Z,7.16
2022-12-05T15:33:21.297Z,7.12
2022-12-05T15:35:28.673Z,7.13
2022-12-05T15:37:38.836Z,7.15
2022-12-05T15:39:57.630Z,7.10
2022-12-05T15:42:02.495Z,7.02
2022-12-05T15:44:08.118Z,7.01
2022-12-05T15:46:24.516Z,6.97
2022-12-05T15:48:30.448Z,6.94
2022-12-05T15:50:39.937Z,7.00
2022-12-05T15:52:51.994Z,7.04
2022-12-05T15:55:03.168Z,7.03
2022-12-05T15:57:12.155Z,7.06
2022-12-05T15:59:21.610Z,7.04
2022-12-05T16:01:28.983Z,7.06
2022-12-05T16:03:43.656Z,7.12
2022-12-05T16:05:53.821Z,7.10
2022-12-05T16:07:59.564Z,7.16
2022-12-05T16:10:08.988Z,7.09
2022-12-05T16:12:28.772Z,7.09
2022-12-05T16:17:05.389Z,7.02
2022-12-05T16:19:18.331Z,6.94
2022-12-05T16:21:39.116Z,6.94
2022-12-05T16:23:45.506Z,7.00
2022-12-05T16:25:53.098Z,7.11
2022-12-05T16:28:02.846Z,7.15
2022-12-05T16:30:13.096Z,7.14
2022-12-05T16:32:23.834Z,7.12
2022-12-05T16:34:30.555Z,7.07
2022-12-05T16:36:36.006Z,7.08
2022-12-05T16:38:43.390Z,7.09
2022-12-05T16:41:00.069Z,6.93
2022-12-05T16:43:05.498Z,6.79
2022-12-05T16:45:41.444Z,6.64
2022-12-05T16:48:01.362Z,6.35
2022-12-05T16:50:25.688Z,6.33
2022-12-05T16:52:33.699Z,6.29
2022-12-05T16:54:40.863Z,6.31
2022-12-05T16:56:45.822Z,6.29
2022-12-05T16:58:50.961Z,6.30
2022-12-05T17:01:02.005Z,6.24
2022-12-05T17:03:33.339Z,6.19
2022-12-05T17:05:38.612Z,6.23
2022-12-05T17:07:43.826Z,6.09
2022-12-05T17:09:53.702Z,6.09
2022-12-05T17:12:06.781Z,6.04
2022-12-05T17:14:15.945Z,5.93
2022-12-05T17:16:21.752Z,5.96
2022-12-05T17:18:31.978Z,5.95
2022-12-05T17:20:39.203Z,6.01
2022-12-05T17:22:44.071Z,6.04
2022-12-05T17:24:49.091Z,6.13
2022-12-05T17:26:56.994Z,6.21
2022-12-05T17:29:01.780Z,6.18
2022-12-05T17:31:06.673Z,6.23
2022-12-05T17:33:13.564Z,6.29
2022-12-05T17:35:23.981Z,6.31
2022-12-05T17:37:28.816Z,6.36
2022-12-05T17:39:33.625Z,6.39
2022-12-05T17:41:38.759Z,6.35
2022-12-05T17:43:46.136Z,6.40
2022-12-05T17:45:51.314Z,6.36
2022-12-05T17:47:55.915Z,6.30
2022-12-05T17:50:01.335Z,6.32
2022-12-05T17:52:24.317Z,6.27
2022-12-05T17:54:32.331Z,6.25
2022-12-05T17:56:37.201Z,6.29
2022-12-05T17:58:42.501Z,6.32
2022-12-05T18:00:47.744Z,6.33
2022-12-05T18:02:53.360Z,6.36
2022-12-05T18:04:58.546Z,6.37
2022-12-05T18:07:03.286Z,6.18
2022-12-05T18:09:10.778Z,6.11
2022-12-05T18:11:16.908Z,6.02
2022-12-05T18:13:22.238Z,6.00
2022-12-05T18:15:27.067Z,6.04
2022-12-05T18:17:34.083Z,5.92
2022-12-05T18:19:38.981Z,5.92
2022-12-05T18:21:43.921Z,5.95
2022-12-05T18:23:54.586Z,5.85
2022-12-05T18:26:05.555Z,5.87
2022-12-05T18:28:11.657Z,5.78
2022-12-05T18:30:18.847Z,5.75
2022-12-05T18:32:24.143Z,5.73
2022-12-05T18:34:29.125Z,5.71
2022-12-05T18:36:33.959Z,5.65
2022-12-05T18:38:39.222Z,5.65
2022-12-05T18:40:43.961Z,5.61
2022-12-05T18:42:52.481Z,5.60
2022-12-05T18:44:57.507Z,5.64
2022-12-05T18:47:02.834Z,5.72
2022-12-05T18:49:08.048Z,5.78
2022-12-05T18:51:13.338Z,5.82
2022-12-05T18:53:18.093Z,5.83
2022-12-05T18:55:39.454Z,5.87
2022-12-05T18:57:52.608Z,5.90
2022-12-05T18:59:57.462Z,5.94
2022-12-05T19:02:05.540Z,6.00
2022-12-05T19:04:12.921Z,6.05
2022-12-05T19:06:20.493Z,6.10
2022-12-05T19:08:25.477Z,6.13
2022-12-05T19:10:30.315Z,6.16
2022-12-05T19:12:35.234Z,6.20
2022-12-05T19:14:42.654Z,6.25
2022-12-05T19:16:48.558Z,6.25
2022-12-05T19:19:00.061Z,6.30
2022-12-05T19:21:04.867Z,6.34
2022-12-05T19:23:09.653Z,6.36
2022-12-05T19:25:14.442Z,6.38
2022-12-05T19:27:19.198Z,6.36
2022-12-05T19:29:24.022Z,6.36
2022-12-05T19:31:32.473Z,6.37
2022-12-05T19:33:39.886Z,6.35
2022-12-05T19:35:44.655Z,6.35
2022-12-05T19:37:49.423Z,6.34
2022-12-05T19:39:54.526Z,6.35
2022-12-05T19:42:00.402Z,6.31
2022-12-05T19:44:05.495Z,6.30
2022-12-05T19:46:11.796Z,6.25
2022-12-05T19:48:19.300Z,6.26
2022-12-05T19:50:24.094Z,6.26
2022-12-05T19:52:28.911Z,6.30
2022-12-05T19:54:33.866Z,6.33
2022-12-05T19:56:39.400Z,6.34
2022-12-05T19:58:46.521Z,6.35
2022-12-05T20:00:52.706Z,6.38
2022-12-05T20:02:59.711Z,6.40
2022-12-05T20:05:07.676Z,6.40
2022-12-05T20:07:12.649Z,6.36
2022-12-05T20:09:19.556Z,6.37
2022-12-05T20:11:29.147Z,6.39
2022-12-05T20:13:49.479Z,6.41
2022-12-05T20:15:54.501Z,6.40
2022-12-05T20:17:59.541Z,6.38
2022-12-05T20:20:07.275Z,6.34
2022-12-05T20:22:12.085Z,6.33
2022-12-05T20:24:17.223Z,6.33
2022-12-05T20:26:24.433Z,6.33
2022-12-05T20:28:29.278Z,6.34
2022-12-05T20:30:34.520Z,6.32
2022-12-05T20:32:39.348Z,6.34
2022-12-05T20:34:44.236Z,6.33
2022-12-05T20:36:57.119Z,6.32
2022-12-05T20:39:04.491Z,6.22
2022-12-05T20:41:11.179Z,6.20
2022-12-05T20:43:16.033Z,6.21
2022-12-05T20:45:20.985Z,6.25
2022-12-05T20:47:25.755Z,6.22
2022-12-05T20:49:30.611Z,6.15
2022-12-05T20:51:37.231Z,6.13
2022-12-05T20:53:46.527Z,6.16
2022-12-05T20:55:52.479Z,6.20
2022-12-05T20:57:59.277Z,6.26
2022-12-05T21:00:08.897Z,6.30
2022-12-05T21:02:13.694Z,6.31
2022-12-05T21:04:18.578Z,6.33
2022-12-05T21:06:26.184Z,6.31
2022-12-05T21:08:30.940Z,6.22
2022-12-05T21:10:38.491Z,6.17
2022-12-05T21:12:43.246Z,6.03
2022-12-05T21:14:48.363Z,5.93
2022-12-05T21:16:53.332Z,5.84
2022-12-05T21:18:58.387Z,5.74
2022-12-05T21:21:04.262Z,5.65
2022-12-05T21:23:09.054Z,5.68
2022-12-05T21:25:13.819Z,5.66
2022-12-05T21:27:21.205Z,5.66
2022-12-05T21:29:26.058Z,5.63
2022-12-05T21:31:32.966Z,5.61
2022-12-05T21:33:37.893Z,5.56
2022-12-05T21:35:42.858Z,5.51
2022-12-05T21:37:47.621Z,5.48
2022-12-05T21:39:52.405Z,5.44
2022-12-05T21:41:58.295Z,5.40
2022-12-05T21:44:05.794Z,5.37
2022-12-05T21:46:10.721Z,5.31
2022-12-05T21:48:15.746Z,5.28
2022-12-05T21:50:20.679Z,5.25
2022-12-05T21:52:25.829Z,5.24
2022-12-05T21:54:35.636Z,5.19
2022-12-05T21:56:49.519Z,5.17
2022-12-05T21:58:55.070Z,5.12
2022-12-05T22:01:02.969Z,5.07
2022-12-05T22:03:08.563Z,5.00
2022-12-05T22:05:13.640Z,4.97
2022-12-05T22:07:18.626Z,4.95
2022-12-05T22:09:23.404Z,4.93
2022-12-05T22:11:28.693Z,4.91
2022-12-05T22:13:33.377Z,4.85
2022-12-05T22:15:40.926Z,4.80
2022-12-05T22:17:52.527Z,4.75
2022-12-05T22:19:57.670Z,4.76
2022-12-05T22:22:02.745Z,4.75
2022-12-05T22:24:07.954Z,4.74
2022-12-05T22:26:15.252Z,4.75
2022-12-05T22:28:20.196Z,4.69
2022-12-05T22:30:25.006Z,4.67
2022-12-05T22:32:29.766Z,4.67
2022-12-05T22:34:37.170Z,4.66
2022-12-05T22:36:41.950Z,4.67
2022-12-05T22:38:48.950Z,4.65
2022-12-05T22:40:57.498Z,4.65
2022-12-05T22:43:02.290Z,4.61
2022-12-05T22:45:09.970Z,4.53
2022-12-05T22:47:15.288Z,4.52
2022-12-05T22:49:24.947Z,4.42
2022-12-05T22:51:32.719Z,4.37
2022-12-05T22:53:38.664Z,4.36
2022-12-05T22:55:43.472Z,4.38
2022-12-05T22:57:49.330Z,4.37
2022-12-05T22:59:55.177Z,4.33
2022-12-05T23:02:00.067Z,4.36
2022-12-05T23:04:08.475Z,4.38
2022-12-05T23:06:15.251Z,4.38
2022-12-05T23:08:22.587Z,4.37
2022-12-05T23:10:28.025Z,4.35
2022-12-05T23:12:32.890Z,4.33
2022-12-05T23:14:37.671Z,4.31
2022-12-05T23:16:42.502Z,4.31
2022-12-05T23:18:50.113Z,4.30
2022-12-05T23:20:57.959Z,4.32
2022-12-05T23:23:02.717Z,4.35
2022-12-05T23:25:10.848Z,4.36
2022-12-05T23:27:18.773Z,4.41
2022-12-05T23:29:23.673Z,4.41
2022-12-05T23:31:28.763Z,4.36
2022-12-05T23:33:33.402Z,4.33
2022-12-05T23:35:38.337Z,4.30
2022-12-05T23:37:43.155Z,4.28
2022-12-05T23:39:47.923Z,4.25
2022-12-05T23:41:55.727Z,4.31
2022-12-05T23:44:00.608Z,4.36
2022-12-05T23:46:06.473Z,4.41
2022-12-05T23:48:11.243Z,4.46
2022-12-05T23:50:16.045Z,4.53
2022-12-05T23:52:20.910Z,4.58
2022-12-05T23:54:25.798Z,4.66
2022-12-05T23:56:32.748Z,4.72
2022-12-05T23:58:40.712Z,4.79
